sensor_id;sensor_type;location;lat;lon;timestamp;temperature;humidity
27413;DHT22;14871;52.702;5.230;2023-08-31T00:01:46;15.80;99.90
27413;DHT22;14871;52.702;5.230;2023-08-31T00:04:14;15.70;99.90
27413;DHT22;14871;52.702;5.230;2023-08-31T00:06:43;15.80;99.90
27413;DHT22;14871;52.702;5.230;2023-08-31T00:09:11;15.60;99.90
27413;DHT22;14871;52.702;5.230;2023-08-31T00:11:37;15.50;99.90
27413;DHT22;14871;52.702;5.230;2023-08-31T00:14:02;15.50;99.90
27413;DHT22;14871;52.702;5.230;2023-08-31T00:16:29;15.30;99.90
27413;DHT22;14871;52.702;5.230;2023-08-31T00:18:56;15.30;99.90
27413;DHT22;14871;52.702;5.230;2023-08-31T00:21:22;15.30;99.90
27413;DHT22;14871;52.702;5.230;2023-08-31T00:23:47;15.20;99.90
27413;DHT22;14871;52.702;5.230;2023-08-31T00:26:13;15.20;99.90
27413;DHT22;14871;52.702;5.230;2023-08-31T00:28:40;15.20;99.90
27413;DHT22;14871;52.702;5.230;2023-08-31T00:31:08;15.20;99.90
27413;DHT22;14871;52.702;5.230;2023-08-31T00:33:34;15.40;99.90
27413;DHT22;14871;52.702;5.230;2023-08-31T00:36:00;15.20;99.90
27413;DHT22;14871;52.702;5.230;2023-08-31T00:38:32;15.30;99.90
27413;DHT22;14871;52.702;5.230;2023-08-31T00:40:58;15.30;99.90
27413;DHT22;14871;52.702;5.230;2023-08-31T00:43:24;15.30;99.90
27413;DHT22;14871;52.702;5.230;2023-08-31T00:45:51;15.20;99.90
27413;DHT22;14871;52.702;5.230;2023-08-31T00:48:22;15.20;99.90
27413;DHT22;14871;52.702;5.230;2023-08-31T00:50:48;15.30;99.90
27413;DHT22;14871;52.702;5.230;2023-08-31T00:53:14;15.40;99.90
27413;DHT22;14871;52.702;5.230;2023-08-31T00:55:40;15.40;99.90
27413;DHT22;14871;52.702;5.230;2023-08-31T00:58:07;15.40;99.90
27413;DHT22;14871;52.702;5.230;2023-08-31T01:01:39;15.40;99.90
27413;DHT22;14871;52.702;5.230;2023-08-31T01:04:06;15.50;99.90
27413;DHT22;14871;52.702;5.230;2023-08-31T01:06:56;15.50;99.90
27413;DHT22;14871;52.702;5.230;2023-08-31T01:12:03;15.40;99.90
27413;DHT22;14871;52.702;5.230;2023-08-31T01:14:42;15.50;99.90
27413;DHT22;14871;52.702;5.230;2023-08-31T01:17:14;15.40;99.90
27413;DHT22;14871;52.702;5.230;2023-08-31T01:19:54;15.40;99.90
27413;DHT22;14871;52.702;5.230;2023-08-31T01:22:29;15.50;99.90
27413;DHT22;14871;52.702;5.230;2023-08-31T01:24:56;15.50;99.90
27413;DHT22;14871;52.702;5.230;2023-08-31T01:27:23;15.50;99.90
27413;DHT22;14871;52.702;5.230;2023-08-31T01:29:49;15.40;99.90
27413;DHT22;14871;52.702;5.230;2023-08-31T01:32:15;15.40;99.90
27413;DHT22;14871;52.702;5.230;2023-08-31T01:34:40;15.40;99.90
27413;DHT22;14871;52.702;5.230;2023-08-31T01:37:13;15.30;99.90
27413;DHT22;14871;52.702;5.230;2023-08-31T01:40:12;15.30;99.90
27413;DHT22;14871;52.702;5.230;2023-08-31T01:42:42;15.30;99.90
27413;DHT22;14871;52.702;5.230;2023-08-31T01:45:08;15.30;99.90
27413;DHT22;14871;52.702;5.230;2023-08-31T01:47:35;15.20;99.90
27413;DHT22;14871;52.702;5.230;2023-08-31T01:50:01;15.30;99.90
27413;DHT22;14871;52.702;5.230;2023-08-31T01:52:27;15.10;99.90
27413;DHT22;14871;52.702;5.230;2023-08-31T01:54:53;15.20;99.90
27413;DHT22;14871;52.702;5.230;2023-08-31T01:57:18;15.20;99.90
27413;DHT22;14871;52.702;5.230;2023-08-31T01:59:44;15.20;99.90
27413;DHT22;14871;52.702;5.230;2023-08-31T02:02:09;15.30;99.90
27413;DHT22;14871;52.702;5.230;2023-08-31T02:04:35;15.30;99.90
27413;DHT22;14871;52.702;5.230;2023-08-31T02:07:01;15.30;99.90
27413;DHT22;14871;52.702;5.230;2023-08-31T02:09:26;15.30;99.90
27413;DHT22;14871;52.702;5.230;2023-08-31T02:11:52;15.40;99.90
27413;DHT22;14871;52.702;5.230;2023-08-31T02:14:18;15.40;99.90
27413;DHT22;14871;52.702;5.230;2023-08-31T02:16:43;15.30;99.90
27413;DHT22;14871;52.702;5.230;2023-08-31T02:19:09;15.50;99.90
27413;DHT22;14871;52.702;5.230;2023-08-31T02:21:35;15.40;99.90
27413;DHT22;14871;52.702;5.230;2023-08-31T02:24:01;15.30;99.90
27413;DHT22;14871;52.702;5.230;2023-08-31T02:26:26;15.20;99.90
27413;DHT22;14871;52.702;5.230;2023-08-31T02:28:52;15.40;99.90
27413;DHT22;14871;52.702;5.230;2023-08-31T02:31:17;15.30;99.90
27413;DHT22;14871;52.702;5.230;2023-08-31T02:33:45;15.20;99.90
27413;DHT22;14871;52.702;5.230;2023-08-31T02:36:11;15.20;99.90
27413;DHT22;14871;52.702;5.230;2023-08-31T02:38:37;15.20;99.90
27413;DHT22;14871;52.702;5.230;2023-08-31T02:41:02;15.20;99.90
27413;DHT22;14871;52.702;5.230;2023-08-31T02:43:28;15.20;99.90
27413;DHT22;14871;52.702;5.230;2023-08-31T02:46:00;15.30;99.90
27413;DHT22;14871;52.702;5.230;2023-08-31T02:48:26;15.30;99.90
27413;DHT22;14871;52.702;5.230;2023-08-31T02:50:53;15.30;99.90
27413;DHT22;14871;52.702;5.230;2023-08-31T02:53:19;15.20;99.90
27413;DHT22;14871;52.702;5.230;2023-08-31T02:55:45;15.30;99.90
27413;DHT22;14871;52.702;5.230;2023-08-31T02:58:11;15.30;99.90
27413;DHT22;14871;52.702;5.230;2023-08-31T03:00:36;15.20;99.90
27413;DHT22;14871;52.702;5.230;2023-08-31T03:03:05;15.20;99.90
27413;DHT22;14871;52.702;5.230;2023-08-31T03:05:30;15.20;99.90
27413;DHT22;14871;52.702;5.230;2023-08-31T03:07:56;15.20;99.90
27413;DHT22;14871;52.702;5.230;2023-08-31T03:10:22;15.20;99.90
27413;DHT22;14871;52.702;5.230;2023-08-31T03:12:48;15.20;99.90
27413;DHT22;14871;52.702;5.230;2023-08-31T03:15:13;15.30;99.90
27413;DHT22;14871;52.702;5.230;2023-08-31T03:17:39;15.10;99.90
27413;DHT22;14871;52.702;5.230;2023-08-31T03:20:05;15.10;99.90
27413;DHT22;14871;52.702;5.230;2023-08-31T03:22:31;15.10;99.90
27413;DHT22;14871;52.702;5.230;2023-08-31T03:24:57;15.10;99.90
27413;DHT22;14871;52.702;5.230;2023-08-31T03:27:23;15.30;99.90
27413;DHT22;14871;52.702;5.230;2023-08-31T03:29:48;15.20;99.90
27413;DHT22;14871;52.702;5.230;2023-08-31T03:32:14;15.20;99.90
27413;DHT22;14871;52.702;5.230;2023-08-31T03:34:39;15.20;99.90
27413;DHT22;14871;52.702;5.230;2023-08-31T03:37:05;15.10;99.90
27413;DHT22;14871;52.702;5.230;2023-08-31T03:39:30;15.10;99.90
27413;DHT22;14871;52.702;5.230;2023-08-31T03:41:56;15.10;99.90
27413;DHT22;14871;52.702;5.230;2023-08-31T03:44:22;15.10;99.90
27413;DHT22;14871;52.702;5.230;2023-08-31T03:46:48;15.10;99.90
27413;DHT22;14871;52.702;5.230;2023-08-31T03:49:13;15.10;99.90
27413;DHT22;14871;52.702;5.230;2023-08-31T03:51:39;15.00;99.90
27413;DHT22;14871;52.702;5.230;2023-08-31T03:54:05;15.00;99.90
27413;DHT22;14871;52.702;5.230;2023-08-31T03:56:30;15.10;99.90
27413;DHT22;14871;52.702;5.230;2023-08-31T03:58:57;15.00;99.90
27413;DHT22;14871;52.702;5.230;2023-08-31T04:01:22;15.10;99.90
27413;DHT22;14871;52.702;5.230;2023-08-31T04:03:48;15.10;99.90
27413;DHT22;14871;52.702;5.230;2023-08-31T04:06:14;15.10;99.90
27413;DHT22;14871;52.702;5.230;2023-08-31T04:08:40;15.00;99.90
27413;DHT22;14871;52.702;5.230;2023-08-31T04:11:05;15.00;99.90
27413;DHT22;14871;52.702;5.230;2023-08-31T04:13:31;15.00;99.90
27413;DHT22;14871;52.702;5.230;2023-08-31T04:15:56;14.90;99.90
27413;DHT22;14871;52.702;5.230;2023-08-31T04:18:22;15.00;99.90
27413;DHT22;14871;52.702;5.230;2023-08-31T04:20:52;15.00;99.90
27413;DHT22;14871;52.702;5.230;2023-08-31T04:23:19;14.90;99.90
27413;DHT22;14871;52.702;5.230;2023-08-31T04:25:47;15.00;99.90
27413;DHT22;14871;52.702;5.230;2023-08-31T04:28:14;15.00;99.90
27413;DHT22;14871;52.702;5.230;2023-08-31T04:30:40;15.00;99.90
27413;DHT22;14871;52.702;5.230;2023-08-31T04:33:06;14.90;99.90
27413;DHT22;14871;52.702;5.230;2023-08-31T04:35:33;15.00;99.90
27413;DHT22;14871;52.702;5.230;2023-08-31T04:37:59;14.90;99.90
27413;DHT22;14871;52.702;5.230;2023-08-31T04:40:24;14.90;99.90
27413;DHT22;14871;52.702;5.230;2023-08-31T04:42:50;15.00;99.90
27413;DHT22;14871;52.702;5.230;2023-08-31T04:45:16;15.00;99.90
27413;DHT22;14871;52.702;5.230;2023-08-31T04:47:42;15.00;99.90
27413;DHT22;14871;52.702;5.230;2023-08-31T04:50:08;15.00;99.90
27413;DHT22;14871;52.702;5.230;2023-08-31T04:52:34;14.90;99.90
27413;DHT22;14871;52.702;5.230;2023-08-31T04:55:05;15.00;99.90
27413;DHT22;14871;52.702;5.230;2023-08-31T04:57:33;15.00;99.90
27413;DHT22;14871;52.702;5.230;2023-08-31T04:59:58;15.00;99.90
27413;DHT22;14871;52.702;5.230;2023-08-31T05:02:24;15.00;99.90
27413;DHT22;14871;52.702;5.230;2023-08-31T05:04:50;14.90;99.90
27413;DHT22;14871;52.702;5.230;2023-08-31T05:07:15;14.80;99.90
27413;DHT22;14871;52.702;5.230;2023-08-31T05:09:41;14.90;99.90
27413;DHT22;14871;52.702;5.230;2023-08-31T05:12:07;14.80;99.90
27413;DHT22;14871;52.702;5.230;2023-08-31T05:14:33;14.90;99.90
27413;DHT22;14871;52.702;5.230;2023-08-31T05:17:03;14.90;99.90
27413;DHT22;14871;52.702;5.230;2023-08-31T05:19:29;14.90;99.90
27413;DHT22;14871;52.702;5.230;2023-08-31T05:21:54;14.90;99.90
27413;DHT22;14871;52.702;5.230;2023-08-31T05:24:20;15.00;99.90
27413;DHT22;14871;52.702;5.230;2023-08-31T05:26:45;15.00;99.90
27413;DHT22;14871;52.702;5.230;2023-08-31T05:29:11;15.00;99.90
27413;DHT22;14871;52.702;5.230;2023-08-31T05:31:37;15.00;99.90
27413;DHT22;14871;52.702;5.230;2023-08-31T05:34:02;15.00;99.90
27413;DHT22;14871;52.702;5.230;2023-08-31T05:36:28;15.00;99.90
27413;DHT22;14871;52.702;5.230;2023-08-31T05:38:54;15.10;99.90
27413;DHT22;14871;52.702;5.230;2023-08-31T05:41:19;15.20;99.90
27413;DHT22;14871;52.702;5.230;2023-08-31T05:43:46;15.10;99.90
27413;DHT22;14871;52.702;5.230;2023-08-31T05:46:11;15.10;99.90
27413;DHT22;14871;52.702;5.230;2023-08-31T05:48:37;15.30;99.90
27413;DHT22;14871;52.702;5.230;2023-08-31T05:51:03;15.30;99.90
27413;DHT22;14871;52.702;5.230;2023-08-31T05:53:32;15.40;99.90
27413;DHT22;14871;52.702;5.230;2023-08-31T05:55:58;15.30;99.90
27413;DHT22;14871;52.702;5.230;2023-08-31T05:58:31;15.30;99.90
27413;DHT22;14871;52.702;5.230;2023-08-31T06:00:57;15.40;99.90
27413;DHT22;14871;52.702;5.230;2023-08-31T06:03:23;15.30;99.90
27413;DHT22;14871;52.702;5.230;2023-08-31T06:05:49;15.40;99.90
27413;DHT22;14871;52.702;5.230;2023-08-31T06:08:15;15.40;99.90
27413;DHT22;14871;52.702;5.230;2023-08-31T06:10:41;15.40;99.90
27413;DHT22;14871;52.702;5.230;2023-08-31T06:13:06;15.60;99.90
27413;DHT22;14871;52.702;5.230;2023-08-31T06:15:32;15.60;99.90
27413;DHT22;14871;52.702;5.230;2023-08-31T06:17:58;15.50;99.90
27413;DHT22;14871;52.702;5.230;2023-08-31T06:20:23;15.50;99.90
27413;DHT22;14871;52.702;5.230;2023-08-31T06:22:49;15.60;99.90
27413;DHT22;14871;52.702;5.230;2023-08-31T06:25:15;15.70;99.90
27413;DHT22;14871;52.702;5.230;2023-08-31T06:27:42;15.70;99.90
27413;DHT22;14871;52.702;5.230;2023-08-31T06:30:08;15.70;99.90
27413;DHT22;14871;52.702;5.230;2023-08-31T06:32:37;15.80;99.90
27413;DHT22;14871;52.702;5.230;2023-08-31T06:35:03;15.90;99.90
27413;DHT22;14871;52.702;5.230;2023-08-31T06:37:29;15.90;99.90
27413;DHT22;14871;52.702;5.230;2023-08-31T06:39:54;15.90;99.90
27413;DHT22;14871;52.702;5.230;2023-08-31T06:42:20;16.00;99.90
27413;DHT22;14871;52.702;5.230;2023-08-31T06:44:46;16.00;99.90
27413;DHT22;14871;52.702;5.230;2023-08-31T06:47:11;16.00;99.90
27413;DHT22;14871;52.702;5.230;2023-08-31T06:49:39;16.00;99.90
27413;DHT22;14871;52.702;5.230;2023-08-31T06:52:04;16.10;99.90
27413;DHT22;14871;52.702;5.230;2023-08-31T06:54:33;16.10;99.90
27413;DHT22;14871;52.702;5.230;2023-08-31T06:56:58;16.20;99.90
27413;DHT22;14871;52.702;5.230;2023-08-31T06:59:24;16.30;99.90
27413;DHT22;14871;52.702;5.230;2023-08-31T07:01:50;16.40;99.90
27413;DHT22;14871;52.702;5.230;2023-08-31T07:04:15;16.40;99.90
27413;DHT22;14871;52.702;5.230;2023-08-31T07:06:41;16.70;99.90
27413;DHT22;14871;52.702;5.230;2023-08-31T07:09:07;16.80;99.90
27413;DHT22;14871;52.702;5.230;2023-08-31T07:11:34;17.00;99.90
27413;DHT22;14871;52.702;5.230;2023-08-31T07:13:59;17.00;99.90
27413;DHT22;14871;52.702;5.230;2023-08-31T07:16:25;17.10;99.90
27413;DHT22;14871;52.702;5.230;2023-08-31T07:18:51;17.10;99.90
27413;DHT22;14871;52.702;5.230;2023-08-31T07:21:17;17.20;99.90
27413;DHT22;14871;52.702;5.230;2023-08-31T07:23:43;17.40;99.90
27413;DHT22;14871;52.702;5.230;2023-08-31T07:26:09;17.50;99.90
27413;DHT22;14871;52.702;5.230;2023-08-31T07:28:34;17.60;99.90
27413;DHT22;14871;52.702;5.230;2023-08-31T07:31:05;17.80;99.90
27413;DHT22;14871;52.702;5.230;2023-08-31T07:33:32;17.80;99.90
27413;DHT22;14871;52.702;5.230;2023-08-31T07:35:58;17.90;99.90
27413;DHT22;14871;52.702;5.230;2023-08-31T07:38:24;17.80;99.90
27413;DHT22;14871;52.702;5.230;2023-08-31T07:40:50;17.90;99.90
27413;DHT22;14871;52.702;5.230;2023-08-31T07:43:16;17.90;99.90
27413;DHT22;14871;52.702;5.230;2023-08-31T07:45:41;17.90;99.90
27413;DHT22;14871;52.702;5.230;2023-08-31T07:48:07;18.00;99.90
27413;DHT22;14871;52.702;5.230;2023-08-31T07:50:33;18.00;99.90
27413;DHT22;14871;52.702;5.230;2023-08-31T07:52:59;18.30;99.90
27413;DHT22;14871;52.702;5.230;2023-08-31T07:55:25;18.50;99.90
27413;DHT22;14871;52.702;5.230;2023-08-31T07:57:51;18.80;99.90
27413;DHT22;14871;52.702;5.230;2023-08-31T08:00:17;18.70;99.90
27413;DHT22;14871;52.702;5.230;2023-08-31T08:02:44;18.80;99.90
27413;DHT22;14871;52.702;5.230;2023-08-31T08:05:10;19.00;99.90
27413;DHT22;14871;52.702;5.230;2023-08-31T08:07:36;19.10;99.90
27413;DHT22;14871;52.702;5.230;2023-08-31T08:10:01;19.20;99.90
27413;DHT22;14871;52.702;5.230;2023-08-31T08:12:36;19.60;99.90
27413;DHT22;14871;52.702;5.230;2023-08-31T08:15:01;19.60;99.90
27413;DHT22;14871;52.702;5.230;2023-08-31T08:17:27;19.40;99.90
27413;DHT22;14871;52.702;5.230;2023-08-31T08:19:53;19.30;99.90
27413;DHT22;14871;52.702;5.230;2023-08-31T08:22:18;19.20;99.90
27413;DHT22;14871;52.702;5.230;2023-08-31T08:24:44;19.20;99.90
27413;DHT22;14871;52.702;5.230;2023-08-31T08:27:09;19.20;99.90
27413;DHT22;14871;52.702;5.230;2023-08-31T08:29:35;19.10;99.90
27413;DHT22;14871;52.702;5.230;2023-08-31T08:32:01;19.30;99.90
27413;DHT22;14871;52.702;5.230;2023-08-31T08:34:26;19.40;99.90
27413;DHT22;14871;52.702;5.230;2023-08-31T08:36:53;19.70;99.90
27413;DHT22;14871;52.702;5.230;2023-08-31T08:39:18;19.90;99.90
27413;DHT22;14871;52.702;5.230;2023-08-31T08:41:44;20.00;99.90
27413;DHT22;14871;52.702;5.230;2023-08-31T08:44:10;20.20;99.90
27413;DHT22;14871;52.702;5.230;2023-08-31T08:46:37;20.40;99.90
27413;DHT22;14871;52.702;5.230;2023-08-31T08:49:03;20.70;99.90
27413;DHT22;14871;52.702;5.230;2023-08-31T08:51:31;20.70;99.90
27413;DHT22;14871;52.702;5.230;2023-08-31T08:53:59;20.80;99.90
27413;DHT22;14871;52.702;5.230;2023-08-31T08:56:24;20.90;99.90
27413;DHT22;14871;52.702;5.230;2023-08-31T08:58:51;21.00;99.90
27413;DHT22;14871;52.702;5.230;2023-08-31T09:01:17;21.20;99.90
27413;DHT22;14871;52.702;5.230;2023-08-31T09:03:48;21.40;99.90
27413;DHT22;14871;52.702;5.230;2023-08-31T09:06:14;21.40;99.90
27413;DHT22;14871;52.702;5.230;2023-08-31T09:08:41;21.60;99.90
27413;DHT22;14871;52.702;5.230;2023-08-31T09:11:07;21.60;99.90
27413;DHT22;14871;52.702;5.230;2023-08-31T09:13:32;21.70;99.90
27413;DHT22;14871;52.702;5.230;2023-08-31T09:15:59;21.50;99.90
27413;DHT22;14871;52.702;5.230;2023-08-31T09:18:29;21.50;99.90
27413;DHT22;14871;52.702;5.230;2023-08-31T09:20:56;21.40;99.90
27413;DHT22;14871;52.702;5.230;2023-08-31T09:23:24;21.30;99.90
27413;DHT22;14871;52.702;5.230;2023-08-31T09:25:56;21.60;99.90
27413;DHT22;14871;52.702;5.230;2023-08-31T09:28:27;21.60;99.90
27413;DHT22;14871;52.702;5.230;2023-08-31T09:30:53;21.90;99.90
27413;DHT22;14871;52.702;5.230;2023-08-31T09:33:27;22.10;99.90
27413;DHT22;14871;52.702;5.230;2023-08-31T09:35:57;22.10;99.90
27413;DHT22;14871;52.702;5.230;2023-08-31T09:38:22;22.20;99.90
27413;DHT22;14871;52.702;5.230;2023-08-31T09:40:48;22.00;99.90
27413;DHT22;14871;52.702;5.230;2023-08-31T09:43:21;21.70;99.90
27413;DHT22;14871;52.702;5.230;2023-08-31T09:45:48;21.40;99.90
27413;DHT22;14871;52.702;5.230;2023-08-31T09:48:15;21.20;99.90
27413;DHT22;14871;52.702;5.230;2023-08-31T09:50:43;21.10;99.90
27413;DHT22;14871;52.702;5.230;2023-08-31T09:53:11;20.70;99.90
27413;DHT22;14871;52.702;5.230;2023-08-31T09:55:39;20.70;99.90
27413;DHT22;14871;52.702;5.230;2023-08-31T09:58:07;20.60;99.90
27413;DHT22;14871;52.702;5.230;2023-08-31T10:00:36;20.60;99.90
27413;DHT22;14871;52.702;5.230;2023-08-31T10:03:04;20.40;99.90
27413;DHT22;14871;52.702;5.230;2023-08-31T10:05:31;20.30;99.90
27413;DHT22;14871;52.702;5.230;2023-08-31T10:08:00;20.70;99.90
27413;DHT22;14871;52.702;5.230;2023-08-31T10:10:28;21.10;99.90
27413;DHT22;14871;52.702;5.230;2023-08-31T10:12:54;21.40;99.90
27413;DHT22;14871;52.702;5.230;2023-08-31T10:15:20;21.20;99.90
27413;DHT22;14871;52.702;5.230;2023-08-31T10:17:46;21.10;99.90
27413;DHT22;14871;52.702;5.230;2023-08-31T10:20:14;20.80;99.90
27413;DHT22;14871;52.702;5.230;2023-08-31T10:22:41;20.80;99.90
27413;DHT22;14871;52.702;5.230;2023-08-31T10:25:07;20.80;99.90
27413;DHT22;14871;52.702;5.230;2023-08-31T10:27:40;21.00;99.90
27413;DHT22;14871;52.702;5.230;2023-08-31T10:30:27;21.40;99.90
27413;DHT22;14871;52.702;5.230;2023-08-31T10:33:22;22.00;99.90
27413;DHT22;14871;52.702;5.230;2023-08-31T10:35:49;22.10;99.90
27413;DHT22;14871;52.702;5.230;2023-08-31T10:38:15;21.90;99.90
27413;DHT22;14871;52.702;5.230;2023-08-31T10:40:41;21.80;99.90
27413;DHT22;14871;52.702;5.230;2023-08-31T10:43:16;21.70;99.90
27413;DHT22;14871;52.702;5.230;2023-08-31T10:45:45;21.60;99.90
27413;DHT22;14871;52.702;5.230;2023-08-31T10:48:11;21.40;99.90
27413;DHT22;14871;52.702;5.230;2023-08-31T10:50:44;21.20;99.90
27413;DHT22;14871;52.702;5.230;2023-08-31T10:53:10;21.00;99.90
27413;DHT22;14871;52.702;5.230;2023-08-31T10:55:53;21.20;99.90
27413;DHT22;14871;52.702;5.230;2023-08-31T10:58:19;21.10;99.90
27413;DHT22;14871;52.702;5.230;2023-08-31T11:00:52;21.20;99.90
27413;DHT22;14871;52.702;5.230;2023-08-31T11:03:18;21.40;99.90
27413;DHT22;14871;52.702;5.230;2023-08-31T11:05:53;21.80;99.90
27413;DHT22;14871;52.702;5.230;2023-08-31T11:08:23;22.30;99.90
27413;DHT22;14871;52.702;5.230;2023-08-31T11:10:49;22.50;99.90
27413;DHT22;14871;52.702;5.230;2023-08-31T11:13:19;22.60;99.90
27413;DHT22;14871;52.702;5.230;2023-08-31T11:15:46;22.40;99.90
27413;DHT22;14871;52.702;5.230;2023-08-31T11:18:12;22.30;99.90
27413;DHT22;14871;52.702;5.230;2023-08-31T11:20:40;22.40;99.90
27413;DHT22;14871;52.702;5.230;2023-08-31T11:23:06;22.50;99.90
27413;DHT22;14871;52.702;5.230;2023-08-31T11:25:32;22.70;99.90
27413;DHT22;14871;52.702;5.230;2023-08-31T11:28:03;22.80;99.90
27413;DHT22;14871;52.702;5.230;2023-08-31T11:30:31;22.80;99.90
27413;DHT22;14871;52.702;5.230;2023-08-31T11:33:00;22.70;99.90
27413;DHT22;14871;52.702;5.230;2023-08-31T11:35:32;22.80;99.90
27413;DHT22;14871;52.702;5.230;2023-08-31T11:37:59;23.10;99.90
27413;DHT22;14871;52.702;5.230;2023-08-31T11:40:28;23.10;99.90
27413;DHT22;14871;52.702;5.230;2023-08-31T11:42:54;23.00;99.90
27413;DHT22;14871;52.702;5.230;2023-08-31T11:45:20;23.20;99.90
27413;DHT22;14871;52.702;5.230;2023-08-31T11:47:48;23.20;99.90
27413;DHT22;14871;52.702;5.230;2023-08-31T11:50:15;23.10;99.90
27413;DHT22;14871;52.702;5.230;2023-08-31T11:52:42;23.10;99.90
27413;DHT22;14871;52.702;5.230;2023-08-31T11:55:16;23.20;99.90
27413;DHT22;14871;52.702;5.230;2023-08-31T11:57:53;23.50;99.90
27413;DHT22;14871;52.702;5.230;2023-08-31T12:00:20;23.60;99.90
27413;DHT22;14871;52.702;5.230;2023-08-31T12:02:57;23.50;99.90
27413;DHT22;14871;52.702;5.230;2023-08-31T12:05:23;23.10;99.90
27413;DHT22;14871;52.702;5.230;2023-08-31T12:07:49;22.90;99.90
27413;DHT22;14871;52.702;5.230;2023-08-31T12:10:16;23.10;99.90
27413;DHT22;14871;52.702;5.230;2023-08-31T12:12:42;23.10;99.90
27413;DHT22;14871;52.702;5.230;2023-08-31T12:15:07;23.10;99.90
27413;DHT22;14871;52.702;5.230;2023-08-31T12:17:37;23.10;99.90
27413;DHT22;14871;52.702;5.230;2023-08-31T12:20:05;23.20;99.90
27413;DHT22;14871;52.702;5.230;2023-08-31T12:22:31;23.30;99.90
27413;DHT22;14871;52.702;5.230;2023-08-31T12:24:56;23.10;99.90
27413;DHT22;14871;52.702;5.230;2023-08-31T12:27:22;23.10;99.90
27413;DHT22;14871;52.702;5.230;2023-08-31T12:29:47;23.00;99.90
27413;DHT22;14871;52.702;5.230;2023-08-31T12:32:14;23.00;99.90
27413;DHT22;14871;52.702;5.230;2023-08-31T12:34:40;23.20;99.90
27413;DHT22;14871;52.702;5.230;2023-08-31T12:37:06;23.70;99.90
27413;DHT22;14871;52.702;5.230;2023-08-31T12:39:32;24.00;99.90
27413;DHT22;14871;52.702;5.230;2023-08-31T12:41:58;23.90;99.90
27413;DHT22;14871;52.702;5.230;2023-08-31T12:44:25;24.00;99.90
27413;DHT22;14871;52.702;5.230;2023-08-31T12:46:51;24.30;99.90
27413;DHT22;14871;52.702;5.230;2023-08-31T12:49:17;24.30;99.90
27413;DHT22;14871;52.702;5.230;2023-08-31T12:51:43;24.40;99.90
27413;DHT22;14871;52.702;5.230;2023-08-31T12:54:09;24.20;99.90
27413;DHT22;14871;52.702;5.230;2023-08-31T12:56:35;24.20;99.90
27413;DHT22;14871;52.702;5.230;2023-08-31T12:59:04;24.20;99.90
27413;DHT22;14871;52.702;5.230;2023-08-31T13:01:31;24.10;99.90
27413;DHT22;14871;52.702;5.230;2023-08-31T13:03:58;24.30;99.90
27413;DHT22;14871;52.702;5.230;2023-08-31T13:06:24;24.40;99.90
27413;DHT22;14871;52.702;5.230;2023-08-31T13:08:51;24.40;99.90
27413;DHT22;14871;52.702;5.230;2023-08-31T13:11:16;24.50;99.90
27413;DHT22;14871;52.702;5.230;2023-08-31T13:13:48;24.60;99.90
27413;DHT22;14871;52.702;5.230;2023-08-31T13:16:14;24.60;99.90
27413;DHT22;14871;52.702;5.230;2023-08-31T13:18:39;24.50;99.70
27413;DHT22;14871;52.702;5.230;2023-08-31T13:21:05;24.50;99.50
27413;DHT22;14871;52.702;5.230;2023-08-31T13:23:31;24.50;98.90
27413;DHT22;14871;52.702;5.230;2023-08-31T13:25:57;24.80;99.80
27413;DHT22;14871;52.702;5.230;2023-08-31T13:28:23;24.90;99.40
27413;DHT22;14871;52.702;5.230;2023-08-31T13:30:49;24.90;99.20
27413;DHT22;14871;52.702;5.230;2023-08-31T13:33:15;25.00;99.10
27413;DHT22;14871;52.702;5.230;2023-08-31T13:35:41;24.90;97.60
27413;DHT22;14871;52.702;5.230;2023-08-31T13:38:06;25.00;97.90
27413;DHT22;14871;52.702;5.230;2023-08-31T13:40:34;25.10;97.00
27413;DHT22;14871;52.702;5.230;2023-08-31T13:43:00;24.90;97.80
27413;DHT22;14871;52.702;5.230;2023-08-31T13:45:29;24.90;97.10
27413;DHT22;14871;52.702;5.230;2023-08-31T13:47:54;24.70;96.70
27413;DHT22;14871;52.702;5.230;2023-08-31T13:50:20;24.40;97.10
27413;DHT22;14871;52.702;5.230;2023-08-31T13:52:46;24.40;98.10
27413;DHT22;14871;52.702;5.230;2023-08-31T13:55:12;24.60;97.10
27413;DHT22;14871;52.702;5.230;2023-08-31T13:57:41;24.50;95.80
27413;DHT22;14871;52.702;5.230;2023-08-31T14:00:08;24.40;95.60
27413;DHT22;14871;52.702;5.230;2023-08-31T14:02:37;24.10;96.20
27413;DHT22;14871;52.702;5.230;2023-08-31T14:05:06;24.00;97.20
27413;DHT22;14871;52.702;5.230;2023-08-31T14:07:33;24.00;96.50
27413;DHT22;14871;52.702;5.230;2023-08-31T14:09:59;24.20;96.60
27413;DHT22;14871;52.702;5.230;2023-08-31T14:12:25;24.30;97.50
27413;DHT22;14871;52.702;5.230;2023-08-31T14:14:51;24.50;98.50
27413;DHT22;14871;52.702;5.230;2023-08-31T14:17:17;24.70;96.80
27413;DHT22;14871;52.702;5.230;2023-08-31T14:19:43;24.70;96.90
27413;DHT22;14871;52.702;5.230;2023-08-31T14:22:09;24.60;96.30
27413;DHT22;14871;52.702;5.230;2023-08-31T14:24:36;24.80;95.60
27413;DHT22;14871;52.702;5.230;2023-08-31T14:27:03;24.80;95.40
27413;DHT22;14871;52.702;5.230;2023-08-31T14:29:28;24.50;95.80
27413;DHT22;14871;52.702;5.230;2023-08-31T14:31:55;24.50;96.60
27413;DHT22;14871;52.702;5.230;2023-08-31T14:34:21;24.50;96.00
27413;DHT22;14871;52.702;5.230;2023-08-31T14:36:47;24.20;95.80
27413;DHT22;14871;52.702;5.230;2023-08-31T14:39:13;24.00;95.80
27413;DHT22;14871;52.702;5.230;2023-08-31T14:41:40;24.00;95.80
27413;DHT22;14871;52.702;5.230;2023-08-31T14:44:06;24.20;96.40
27413;DHT22;14871;52.702;5.230;2023-08-31T14:46:32;24.30;95.40
27413;DHT22;14871;52.702;5.230;2023-08-31T14:48:58;24.20;95.00
27413;DHT22;14871;52.702;5.230;2023-08-31T14:51:24;24.30;95.40
27413;DHT22;14871;52.702;5.230;2023-08-31T14:53:49;24.30;95.00
27413;DHT22;14871;52.702;5.230;2023-08-31T14:56:15;24.50;95.00
27413;DHT22;14871;52.702;5.230;2023-08-31T14:58:40;24.40;94.80
27413;DHT22;14871;52.702;5.230;2023-08-31T15:01:06;24.20;94.20
27413;DHT22;14871;52.702;5.230;2023-08-31T15:03:31;24.20;94.60
27413;DHT22;14871;52.702;5.230;2023-08-31T15:05:57;24.20;93.50
27413;DHT22;14871;52.702;5.230;2023-08-31T15:08:36;24.20;92.90
27413;DHT22;14871;52.702;5.230;2023-08-31T15:11:02;24.10;92.50
27413;DHT22;14871;52.702;5.230;2023-08-31T15:13:28;24.20;92.70
27413;DHT22;14871;52.702;5.230;2023-08-31T15:15:53;24.10;94.00
27413;DHT22;14871;52.702;5.230;2023-08-31T15:18:19;24.20;93.30
27413;DHT22;14871;52.702;5.230;2023-08-31T15:20:45;24.10;93.00
27413;DHT22;14871;52.702;5.230;2023-08-31T15:23:10;24.00;93.70
27413;DHT22;14871;52.702;5.230;2023-08-31T15:25:36;24.20;93.40
27413;DHT22;14871;52.702;5.230;2023-08-31T15:28:01;24.10;94.50
27413;DHT22;14871;52.702;5.230;2023-08-31T15:30:29;24.00;94.60
27413;DHT22;14871;52.702;5.230;2023-08-31T15:32:55;24.10;95.00